Mariner Of The Seas — C6FV9 — position and weather

sailwx.info

Track history (hours):
 
Tides and Currents Weather Stations Pressure Air Temp Water Temp Dewpoint Dewpoint Depression Visibility Wind Speed Wind Dir Waves Ship Positions

Mariner Of The Seas

Operator: Royal Caribbean Cruises Ltd

Last reported at 2016-May-05 13:32 UTC. Time now 2016-May-05 14:21 UTC.
Position N 35°36' E 139°46'.

Type: Passenger vessel. MMSI: 311493000.

Date/timePositionNaut miles runAvg speedWind from/ knotsBaromVisibWave heightAir tempDewpointWater temp
2016-May-05 13:32N 35°36' E 139°46'0 0.0
2016-May-05 12:32N 35°36' E 139°46'0 0.0
2016-May-05 11:32N 35°36' E 139°46'0 0.0
2016-May-05 10:32N 35°36' E 139°46'0 0.1
2016-May-05 09:33N 35°36' E 139°47'8 8.0
2016-May-05 08:34N 35°29' E 139°52'1312.6
2016-May-05 07:33N 35°18' E 139°45'1212.1
2016-May-05 06:34N 35°06' E 139°47'1919.3
2016-May-05 05:33N 34°54' E 139°28'  
2016-Apr-29 10:33N 35°05' E 139°42'1313.1
2016-Apr-29 09:33N 35°18' E 139°44'1211.9
2016-Apr-29 08:34N 35°29' E 139°50'7 7.1
2016-Apr-29 07:31N 35°36' E 139°47'0 0.0
2016-Apr-29 06:25N 35°36' E 139°47'0 0.0
2016-Apr-29 05:28N 35°36' E 139°47'0 0.0
2016-Apr-29 04:31N 35°36' E 139°47'0 0.0
2016-Apr-29 03:31N 35°36' E 139°47'0 0.0
2016-Apr-29 02:25N 35°36' E 139°47'0 0.0
2016-Apr-29 01:31N 35°36' E 139°47'0 0.0
2016-Apr-29 00:31N 35°36' E 139°47'0 0.0
2016-Apr-28 23:31N 35°36' E 139°47'1 0.9
2016-Apr-28 22:33N 35°35' E 139°48'7 7.5
2016-Apr-28 21:33N 35°28' E 139°51'1212.2
2016-Apr-28 20:33N 35°17' E 139°45'1111.1
2016-Apr-28 19:33N 35°06' E 139°44'1413.6
2016-Apr-28 18:33N 34°58' E 139°31'  
Track history (hours):
 
Tides and Currents Weather Stations Pressure Air Temp Water Temp Dewpoint Dewpoint Depression Visibility Wind Speed Wind Dir Waves Ship Positions

Mariner Of The Seas

Operator: Royal Caribbean Cruises Ltd

Last reported at 2016-May-05 13:32 UTC. Time now 2016-May-05 14:21 UTC.
Position N 35°36' E 139°46'.

Type: Passenger vessel. MMSI: 311493000.

Date/timePositionNaut miles runAvg speedWind from/ knotsBaromVisibWave heightAir tempDewpointWater temp
2016-May-05 13:32N 35°36' E 139°46'0 0.0
2016-May-05 12:32N 35°36' E 139°46'0 0.0
2016-May-05 11:32N 35°36' E 139°46'0 0.0
2016-May-05 10:32N 35°36' E 139°46'0 0.1
2016-May-05 09:33N 35°36' E 139°47'8 8.0
2016-May-05 08:34N 35°29' E 139°52'1312.6
2016-May-05 07:33N 35°18' E 139°45'1212.1
2016-May-05 06:34N 35°06' E 139°47'1919.3
2016-May-05 05:33N 34°54' E 139°28'  
2016-Apr-29 10:33N 35°05' E 139°42'1313.1
2016-Apr-29 09:33N 35°18' E 139°44'1211.9
2016-Apr-29 08:34N 35°29' E 139°50'7 7.1
2016-Apr-29 07:31N 35°36' E 139°47'0 0.0
2016-Apr-29 06:25N 35°36' E 139°47'0 0.0
2016-Apr-29 05:28N 35°36' E 139°47'0 0.0
2016-Apr-29 04:31N 35°36' E 139°47'0 0.0
2016-Apr-29 03:31N 35°36' E 139°47'0 0.0
2016-Apr-29 02:25N 35°36' E 139°47'0 0.0
2016-Apr-29 01:31N 35°36' E 139°47'0 0.0
2016-Apr-29 00:31N 35°36' E 139°47'0 0.0
2016-Apr-28 23:31N 35°36' E 139°47'1 0.9
2016-Apr-28 22:33N 35°35' E 139°48'7 7.5
2016-Apr-28 21:33N 35°28' E 139°51'1212.2
2016-Apr-28 20:33N 35°17' E 139°45'1111.1
2016-Apr-28 19:33N 35°06' E 139°44'1413.6
2016-Apr-28 18:33N 34°58' E 139°31'  

Dump ship's entire track history